createdAt,value
2023-01-20T00:03:24.843Z,96433.47
2023-01-20T00:08:26.565Z,96440.72
2023-01-20T00:13:29.131Z,96434.50
2023-01-20T00:18:32.151Z,96431.31
2023-01-20T00:23:34.259Z,96436.72
2023-01-20T00:28:36.346Z,96445.72
2023-01-20T00:33:38.101Z,96454.13
2023-01-20T00:38:39.984Z,96460.69
2023-01-20T00:43:42.473Z,96455.22
2023-01-20T00:48:44.087Z,96455.34
2023-01-20T00:53:45.848Z,96449.28
2023-01-20T00:58:47.587Z,96469.56
2023-01-20T01:03:49.304Z,96467.53
2023-01-20T01:08:51.078Z,96473.84
2023-01-20T01:13:55.748Z,96487.13
2023-01-20T01:18:57.462Z,96492.06
2023-01-20T01:23:59.593Z,96490.88
2023-01-20T01:29:01.405Z,96497.91
2023-01-20T01:34:03.062Z,96492.38
2023-01-20T01:39:04.909Z,96499.72
2023-01-20T01:44:06.787Z,96504.84
2023-01-20T01:49:14.160Z,96498.25
2023-01-20T01:54:21.917Z,96499.31
2023-01-20T01:59:23.581Z,96492.38
2023-01-20T02:04:27.948Z,96497.56
2023-01-20T02:09:30.779Z,96491.44
2023-01-20T02:14:41.286Z,96486.09
2023-01-20T02:20:14.183Z,96489.75
2023-01-20T02:25:29.430Z,96481.41
2023-01-20T02:31:08.769Z,96482.00
2023-01-20T02:36:15.254Z,96489.75
2023-01-20T02:41:35.259Z,96496.50
2023-01-20T02:46:43.712Z,96498.97
2023-01-20T02:52:01.908Z,96505.47
2023-01-20T02:57:09.119Z,96502.34
2023-01-20T03:02:16.130Z,96509.69
2023-01-20T03:07:21.818Z,96511.31
2023-01-20T03:12:54.143Z,96534.97
2023-01-20T03:17:58.583Z,96532.28
2023-01-20T03:23:02.329Z,96538.91
2023-01-20T03:28:04.205Z,96544.09
2023-01-20T03:33:06.230Z,96548.66
2023-01-20T03:38:08.891Z,96556.97
2023-01-20T03:43:22.798Z,96569.38
2023-01-20T03:48:30.567Z,96573.34
2023-01-20T03:54:09.613Z,96579.09
2023-01-20T03:59:14.556Z,96587.19
2023-01-20T04:04:19.096Z,96589.72
2023-01-20T04:09:26.858Z,96588.94
2023-01-20T04:14:28.508Z,96594.94
2023-01-20T04:19:30.438Z,96600.25
2023-01-20T04:24:40.551Z,96604.06
2023-01-20T04:29:42.892Z,96601.16
2023-01-20T04:34:44.666Z,96604.03
2023-01-20T04:39:46.337Z,96611.66
2023-01-20T04:44:48.231Z,96617.31
2023-01-20T04:49:50.223Z,96619.69
2023-01-20T04:54:51.817Z,96618.81
2023-01-20T04:59:53.464Z,96633.03
2023-01-20T05:04:55.202Z,96628.47
2023-01-20T05:09:57.024Z,96637.69
2023-01-20T05:14:58.628Z,96646.28
2023-01-20T05:20:00.417Z,96648.50
2023-01-20T05:25:02.046Z,96659.03
2023-01-20T05:30:06.235Z,96659.09
2023-01-20T05:35:08.754Z,96660.28
2023-01-20T05:40:11.376Z,96670.19
2023-01-20T05:45:13.686Z,96667.44
2023-01-20T05:50:15.864Z,96678.88
2023-01-20T05:55:17.583Z,96682.00
2023-01-20T06:00:19.909Z,96688.38
2023-01-20T06:05:22.420Z,96697.53
2023-01-20T06:10:30.664Z,96701.28
2023-01-20T06:15:32.327Z,96711.28
2023-01-20T06:20:34.025Z,96710.63
2023-01-20T06:25:35.735Z,96716.56
2023-01-20T06:30:38.116Z,96725.44
2023-01-20T06:35:39.898Z,96732.31
2023-01-20T06:40:41.548Z,96734.84
2023-01-20T06:45:43.216Z,96740.69
2023-01-20T06:50:44.906Z,96744.84
2023-01-20T06:55:54.122Z,96752.34
2023-01-20T07:00:56.830Z,96758.94
2023-01-20T07:06:00.954Z,96761.81
2023-01-20T07:11:02.663Z,96771.75
2023-01-20T07:16:05.773Z,96776.75
2023-01-20T07:21:11.619Z,96783.38
2023-01-20T07:26:16.415Z,96781.22
2023-01-20T07:31:21.554Z,96789.41
2023-01-20T07:36:23.824Z,96796.47
2023-01-20T07:41:25.799Z,96808.88
2023-01-20T07:46:27.577Z,96817.63
2023-01-20T07:51:29.312Z,96823.47
2023-01-20T07:56:31.048Z,96832.00
2023-01-20T08:01:33.194Z,96833.03
2023-01-20T08:06:35.027Z,96840.53
2023-01-20T08:11:36.788Z,96853.22
2023-01-20T08:16:38.671Z,96848.63
2023-01-20T08:21:40.324Z,96853.25
2023-01-20T08:26:42.288Z,96855.22
2023-01-20T08:31:44.098Z,96863.50
2023-01-20T08:36:45.831Z,96868.91
2023-01-20T08:41:48.359Z,96874.69
2023-01-20T08:46:52.652Z,96873.84
2023-01-20T08:51:55.354Z,96882.19
2023-01-20T08:56:56.908Z,96892.03
2023-01-20T09:01:58.515Z,96897.34
2023-01-20T09:07:00.269Z,96904.47
2023-01-20T09:12:03.344Z,96906.38
2023-01-20T09:17:05.223Z,96910.69
2023-01-20T09:22:06.934Z,96915.59
2023-01-20T09:27:08.778Z,96921.81
2023-01-20T09:32:12.958Z,96925.59
2023-01-20T09:37:33.491Z,96934.09
2023-01-20T09:43:23.550Z,96946.38
2023-01-20T09:49:06.267Z,96943.84
2023-01-20T09:54:23.412Z,96943.16
2023-01-20T09:59:32.996Z,96950.56
2023-01-20T10:04:46.695Z,96954.38
2023-01-20T10:10:00.854Z,96953.16
2023-01-20T10:15:15.787Z,96955.16
2023-01-20T10:20:28.127Z,96954.47
2023-01-20T10:25:33.500Z,96953.19
2023-01-20T10:30:36.487Z,96947.53
2023-01-20T10:35:48.019Z,96946.91
2023-01-20T10:40:57.179Z,96951.44
2023-01-20T10:46:01.836Z,96950.81
2023-01-20T10:51:48.588Z,96945.19
2023-01-20T10:56:55.570Z,96951.78
2023-01-20T11:02:11.961Z,96948.53
2023-01-20T11:07:18.925Z,96951.34
2023-01-20T11:12:25.600Z,96955.88
2023-01-20T11:17:27.332Z,96956.25
2023-01-20T11:22:31.906Z,96956.91
2023-01-20T11:27:45.839Z,96953.88
2023-01-20T11:33:06.547Z,96955.09
2023-01-20T11:38:26.139Z,96950.88
2023-01-20T11:43:35.387Z,96953.34
2023-01-20T11:48:37.092Z,96959.94
2023-01-20T11:53:39.236Z,96952.00
2023-01-20T11:58:55.371Z,96948.66
2023-01-20T12:04:27.576Z,96952.31
2023-01-20T12:09:40.051Z,96964.16
2023-01-20T12:14:57.618Z,96960.63
2023-01-20T12:20:10.829Z,96975.97
2023-01-20T12:25:27.678Z,96972.09
2023-01-20T12:30:47.782Z,96975.22
2023-01-20T12:36:04.431Z,96977.06
2023-01-20T12:41:13.488Z,96972.31
2023-01-20T12:46:38.322Z,96975.19
2023-01-20T12:52:00.950Z,96981.34
2023-01-20T12:57:25.453Z,96979.47
2023-01-20T13:02:58.545Z,96987.56
2023-01-20T13:08:09.532Z,96985.09
2023-01-20T13:13:29.739Z,96990.06
2023-01-20T13:18:43.856Z,96992.75
2023-01-20T13:23:47.075Z,96992.13
2023-01-20T13:28:56.691Z,96995.59
2023-01-20T13:34:23.480Z,97003.69
2023-01-20T13:39:42.992Z,97009.59
2023-01-20T13:44:45.697Z,97004.81
2023-01-20T13:49:52.198Z,97016.44
2023-01-20T13:54:53.874Z,97016.81
2023-01-20T13:59:56.157Z,97022.81
2023-01-20T14:04:58.748Z,97023.72
2023-01-20T14:10:01.662Z,97033.13
2023-01-20T14:15:03.670Z,97032.97
2023-01-20T14:20:23.503Z,97033.41
2023-01-20T14:25:26.827Z,97046.00
2023-01-20T14:30:28.493Z,97051.84
2023-01-20T14:35:33.484Z,97051.41
2023-01-20T14:40:35.853Z,97061.63
2023-01-20T14:45:37.935Z,97066.31
2023-01-20T14:50:41.360Z,97075.63
2023-01-20T14:55:56.218Z,97078.34
2023-01-20T15:01:04.238Z,97078.34
2023-01-20T15:06:09.248Z,97087.91
2023-01-20T15:11:14.486Z,97095.34
2023-01-20T15:16:46.659Z,97104.91
2023-01-20T15:21:53.970Z,97112.13
2023-01-20T15:26:58.187Z,97117.25
2023-01-20T15:32:10.909Z,97125.97
2023-01-20T15:37:17.057Z,97128.06
2023-01-20T15:42:19.095Z,97135.50
2023-01-20T15:47:27.127Z,97133.63
2023-01-20T15:52:32.253Z,97136.34
2023-01-20T15:57:34.063Z,97136.78
2023-01-20T16:02:35.827Z,97144.25
2023-01-20T16:07:38.521Z,97142.28
2023-01-20T16:12:40.102Z,97146.28
2023-01-20T16:17:42.448Z,97156.28
2023-01-20T16:22:44.107Z,97159.63
2023-01-20T16:27:45.992Z,97167.72
2023-01-20T16:32:47.929Z,97171.47
2023-01-20T16:37:49.722Z,97166.06
2023-01-20T16:42:54.381Z,97185.53
2023-01-20T16:47:56.913Z,97181.41
2023-01-20T16:53:01.417Z,97186.84
2023-01-20T16:58:03.105Z,97193.56
2023-01-20T17:03:05.405Z,97201.91
2023-01-20T17:08:07.188Z,97207.75
2023-01-20T17:13:08.864Z,97216.06
2023-01-20T17:18:10.573Z,97218.16
2023-01-20T17:23:12.860Z,97217.13
2023-01-20T17:28:14.669Z,97217.97
2023-01-20T17:33:16.360Z,97223.38
2023-01-20T17:38:18.154Z,97227.50
2023-01-20T17:43:19.964Z,97229.84
2023-01-20T17:48:21.809Z,97243.50
2023-01-20T17:53:23.630Z,97247.25
2023-01-20T17:58:25.342Z,97249.50
2023-01-20T18:03:27.032Z,97260.94
2023-01-20T18:08:28.697Z,97258.03
2023-01-20T18:13:30.419Z,97265.94
2023-01-20T18:18:32.094Z,97272.16
2023-01-20T18:23:33.866Z,97268.84
2023-01-20T18:28:36.216Z,97274.44
2023-01-20T18:33:43.401Z,97278.78
2023-01-20T18:38:49.676Z,97281.28
2023-01-20T18:43:51.495Z,97289.38
2023-01-20T18:48:54.583Z,97287.94
2023-01-20T18:54:02.245Z,97287.34
2023-01-20T18:59:05.454Z,97290.88
2023-01-20T19:04:09.164Z,97287.56
2023-01-20T19:09:11.650Z,97299.81
2023-01-20T19:14:15.293Z,97295.88
2023-01-20T19:19:20.017Z,97299.00
2023-01-20T19:24:21.892Z,97301.91
2023-01-20T19:29:23.630Z,97308.34
2023-01-20T19:34:25.375Z,97309.13
2023-01-20T19:39:27.598Z,97312.06
2023-01-20T19:44:29.366Z,97318.69
2023-01-20T19:49:31.234Z,97319.91
2023-01-20T19:54:33.747Z,97328.22
2023-01-20T19:59:35.767Z,97322.00
2023-01-20T20:04:37.592Z,97321.16
2023-01-20T20:09:39.278Z,97323.63
2023-01-20T20:14:40.968Z,97336.94
2023-01-20T20:19:42.595Z,97341.09
2023-01-20T20:24:44.630Z,97339.03
2023-01-20T20:29:46.316Z,97346.06
2023-01-20T20:34:48.039Z,97353.13
2023-01-20T20:39:49.750Z,97343.56
2023-01-20T20:44:51.558Z,97349.19
2023-01-20T20:49:53.216Z,97354.59
2023-01-20T20:54:56.066Z,97354.56
2023-01-20T20:59:59.668Z,97357.66
2023-01-20T21:05:01.821Z,97352.25
2023-01-20T21:10:04.957Z,97357.22
2023-01-20T21:15:07.416Z,97369.22
2023-01-20T21:20:10.290Z,97371.50
2023-01-20T21:25:11.877Z,97368.81
2023-01-20T21:30:13.784Z,97372.53
2023-01-20T21:35:15.406Z,97377.91
2023-01-20T21:40:17.509Z,97378.97
2023-01-20T21:45:19.496Z,97378.72
2023-01-20T21:50:39.773Z,97372.50
2023-01-20T21:55:41.787Z,97381.38
2023-01-20T22:00:43.703Z,97382.03
2023-01-20T22:05:45.546Z,97380.38
2023-01-20T22:10:55.513Z,97388.91
2023-01-20T22:16:01.737Z,97391.81
2023-01-20T22:21:05.499Z,97391.25
2023-01-20T22:26:07.143Z,97393.31
2023-01-20T22:31:11.873Z,97402.00
2023-01-20T22:36:13.774Z,97410.91
2023-01-20T22:41:15.924Z,97408.22
2023-01-20T22:46:20.502Z,97411.75
2023-01-20T22:51:24.876Z,97412.53
2023-01-20T22:56:29.460Z,97414.78
2023-01-20T23:01:33.553Z,97413.06
2023-01-20T23:06:36.492Z,97424.22
2023-01-20T23:11:39.876Z,97421.69
2023-01-20T23:16:42.714Z,97418.34
2023-01-20T23:21:44.571Z,97423.72
2023-01-20T23:26:46.223Z,97429.47
2023-01-20T23:31:47.983Z,97426.31
2023-01-20T23:36:49.703Z,97430.00
2023-01-20T23:41:51.527Z,97431.13
2023-01-20T23:46:53.126Z,97432.00
2023-01-20T23:51:55.072Z,97430.78
2023-01-20T23:56:56.760Z,97435.72
